Share

Jerusalem, OH (43747)

12:59 PM EDT die 23o April, anno 2014 (GMT -0400)
Kidwell, WV (KWVSISTE2) Elev 738 ft | 39.54 °N, 80.89 °W | Change Station

Current weather conditions updated 6 minutes ago

Overcast
Aequaliter Nubila
48.6 °F
Feels Like 46 °F
N
6.8
Ventus Variabilis Ventus from Magis Aquilo quam Eurus
Solis Ortus 6:35 AM
Solis Occasus 8:10 PM
Moon Waning Crescent

Today is forecast to be Much Cooler than yesterday.

Pressio 30.04 in
Visibilitas 10.0 milia passuum
Clouds Aequaliter Nubila 2700 ft
Frigus Venti 46 °F
Frigus in quo Ros apparet 35 °F
Umor 59%
Rainfall 0.00 in
Snow Depth Not available.
UV 3 out of 16
Pollen 10.80 out of 12
Air Quality Not available.
Flu Activity Local Activity
METAR KHLG 231553Z 29013G19KT 10SM OVC027 06/M01 A3002 RMK AO2 SLP172 T00561006

More Conditions Fewer Conditions

Pressio 30.04 in
Visibilitas 10.0 milia passuum
Clouds Aequaliter Nubila 2700 ft
Frigus Venti 46 °F
Frigus in quo Ros apparet 35 °F
Umor 59%
Rainfall 0.00 in
Snow Depth Not available.
UV 3 out of 16
Pollen 10.80 out of 12
Air Quality Not available.
Flu Activity Local Activity
METAR KHLG 231553Z 29013G19KT 10SM OVC027 06/M01 A3002 RMK AO2 SLP172 T00561006

More Conditions Fewer Conditions

10-Day Weather Forecast

Almanac

Astronomy

Apr. 23, 2014 Rise Set
Actual Time 6:35 AM EDT 8:10 PM EDT
Civil Twilight 6:06 AM EDT 8:39 PM EDT
Nautical Twilight 5:32 AM EDT 9:14 PM EDT
Astronomical Twilight 4:55 AM EDT 9:50 PM EDT
Moon 3:05 AM EDT 2:18 PM EDT
Length Of Visible Light 14h 32m
Length of Day
13h 35m
Tomorrow will be 2m 23s longer.
Waning Crescent, 34% of the Moon is Illuminated
Hodie
Waning Crescent
Apr 29
New
May 6
First Quarter
May 14
Full
May 21
Last Quarter

Today's Extremes

State Highs State Lows

Community

  • Stunning Sunrise
    Stunning Sunrise
  • spring flowers
    spring flowers
  • Earth Day Spectrum Ove' Blue
    Earth Day Spectrum Ove' Blue
  • BARN B&W
    BARN B&W
  • April Sunset
    April Sunset

WunderPhotos

Upload Photos

1,704,332 photos uploaded!

WunderBlogs® & News

Nearby

Snow Depth

Station Depth Elevation
No new snow has been reported.

Coastal Water Temperatures

Locus Calor
No Stations Reporting

Earthquake Activity

City Distance Mag. Time & Date
No recent earthquake activity has been reported nearby.
Minimum magnitude displayed is 2.5.

Nearby Weather Stations

Station Location Temp Frigus Venti Frigus in quo Ros apparet Umor Ventus Precip. Elev Renovata Type
Kidwell, WV, Sistersville, WV 48.6 °F 46 °F 35 °F 59% Magis Aquilo quam Eurus  -  6.8 mph - / hr 738 ft 12:52 PM EDT Normal

Show More Stations Show Fewer Stations

What do you think?

We're not finished. Please let us know what you like, what you don't like, and what you are still missing.